sensor_id;sensor_type;location;lat;lon;timestamp;noise_LAeq;noise_LA_min;noise_LA_max;noise_LA01;noise_LA95
48148;Laerm;29352;48.708;9.290;2023-12-20T00:01:37;54.58;52.59;55.83;;
48148;Laerm;29352;48.708;9.290;2023-12-20T00:04:04;54.64;52.03;55.94;;
48148;Laerm;29352;48.708;9.290;2023-12-20T00:06:30;54.49;52.35;55.83;;
48148;Laerm;29352;48.708;9.290;2023-12-20T00:08:56;54.39;51.46;55.86;;
48148;Laerm;29352;48.708;9.290;2023-12-20T00:11:23;54.63;45.94;56.15;;
48148;Laerm;29352;48.708;9.290;2023-12-20T00:13:50;54.55;52.88;55.94;;
48148;Laerm;29352;48.708;9.290;2023-12-20T00:16:15;54.53;52.29;55.80;;
48148;Laerm;29352;48.708;9.290;2023-12-20T00:18:41;54.62;53.04;55.86;;
48148;Laerm;29352;48.708;9.290;2023-12-20T00:21:06;54.05;51.30;55.83;;
48148;Laerm;29352;48.708;9.290;2023-12-20T00:23:32;54.30;50.71;55.75;;
48148;Laerm;29352;48.708;9.290;2023-12-20T00:25:57;54.01;47.52;55.69;;
48148;Laerm;29352;48.708;9.290;2023-12-20T00:28:23;54.33;49.58;56.10;;
48148;Laerm;29352;48.708;9.290;2023-12-20T00:30:49;54.33;51.53;55.91;;
48148;Laerm;29352;48.708;9.290;2023-12-20T00:33:14;54.22;51.46;55.63;;
48148;Laerm;29352;48.708;9.290;2023-12-20T00:35:41;54.24;51.14;55.72;;
48148;Laerm;29352;48.708;9.290;2023-12-20T00:38:07;54.26;51.75;55.63;;
48148;Laerm;29352;48.708;9.290;2023-12-20T00:40:34;54.29;39.92;55.91;;
48148;Laerm;29352;48.708;9.290;2023-12-20T00:42:59;53.85;49.46;55.36;;
48148;Laerm;29352;48.708;9.290;2023-12-20T00:45:25;53.76;50.23;55.63;;
48148;Laerm;29352;48.708;9.290;2023-12-20T00:47:51;53.80;47.32;55.69;;
48148;Laerm;29352;48.708;9.290;2023-12-20T00:50:17;59.01;15.00;93.71;;
48148;Laerm;29352;48.708;9.290;2023-12-20T00:52:42;53.78;51.75;55.30;;
48148;Laerm;29352;48.708;9.290;2023-12-20T00:55:07;52.95;46.91;55.42;;
48148;Laerm;29352;48.708;9.290;2023-12-20T00:57:33;53.79;49.08;55.66;;
48148;Laerm;29352;48.708;9.290;2023-12-20T00:59:59;47.77;15.00;55.60;;
48148;Laerm;29352;48.708;9.290;2023-12-20T01:02:25;45.77;15.00;53.58;;
48148;Laerm;29352;48.708;9.290;2023-12-20T01:04:50;49.81;15.00;54.69;;
48148;Laerm;29352;48.708;9.290;2023-12-20T01:07:16;51.51;15.00;55.42;;
48148;Laerm;29352;48.708;9.290;2023-12-20T01:09:42;49.95;39.92;54.07;;
48148;Laerm;29352;48.708;9.290;2023-12-20T01:12:07;52.46;15.00;55.20;;
48148;Laerm;29352;48.708;9.290;2023-12-20T01:14:33;52.88;15.00;56.15;;
48148;Laerm;29352;48.708;9.290;2023-12-20T01:16:59;52.97;15.00;56.30;;
48148;Laerm;29352;48.708;9.290;2023-12-20T01:19:25;54.89;39.92;56.45;;
48148;Laerm;29352;48.708;9.290;2023-12-20T01:21:50;54.92;49.21;56.50;;
48148;Laerm;29352;48.708;9.290;2023-12-20T01:24:16;55.21;48.37;56.57;;
48148;Laerm;29352;48.708;9.290;2023-12-20T01:26:41;55.12;50.03;56.50;;
48148;Laerm;29352;48.708;9.290;2023-12-20T01:29:07;55.31;52.47;56.28;;
48148;Laerm;29352;48.708;9.290;2023-12-20T01:31:32;55.18;42.93;56.33;;
48148;Laerm;29352;48.708;9.290;2023-12-20T01:33:58;55.17;49.08;56.38;;
48148;Laerm;29352;48.708;9.290;2023-12-20T01:36:24;55.17;48.37;56.38;;
48148;Laerm;29352;48.708;9.290;2023-12-20T01:38:49;55.39;48.52;57.32;;
48148;Laerm;29352;48.708;9.290;2023-12-20T01:41:16;55.46;50.98;58.28;;
48148;Laerm;29352;48.708;9.290;2023-12-20T01:43:42;55.17;54.07;57.63;;
48148;Laerm;29352;48.708;9.290;2023-12-20T01:48:34;56.14;36.91;58.39;;
48148;Laerm;29352;48.708;9.290;2023-12-20T01:51:02;57.19;43.44;59.91;;
48148;Laerm;29352;48.708;9.290;2023-12-20T01:53:29;57.00;44.31;60.12;;
48148;Laerm;29352;48.708;9.290;2023-12-20T01:55:58;55.50;49.99;59.16;;
48148;Laerm;29352;48.708;9.290;2023-12-20T01:58:26;55.70;53.19;59.67;;
48148;Laerm;29352;48.708;9.290;2023-12-20T02:00:52;57.21;54.23;59.81;;
48148;Laerm;29352;48.708;9.290;2023-12-20T02:03:18;56.82;54.03;60.13;;
48148;Laerm;29352;48.708;9.290;2023-12-20T02:05:46;55.32;15.00;60.06;;
48148;Laerm;29352;48.708;9.290;2023-12-20T02:08:13;15.00;15.00;15.00;;
48148;Laerm;29352;48.708;9.290;2023-12-20T02:10:40;15.00;15.00;15.00;;
48148;Laerm;29352;48.708;9.290;2023-12-20T02:13:06;15.00;15.00;15.00;;
48148;Laerm;29352;48.708;9.290;2023-12-20T02:15:33;15.00;15.00;15.00;;
48148;Laerm;29352;48.708;9.290;2023-12-20T02:17:59;15.00;15.00;15.00;;
48148;Laerm;29352;48.708;9.290;2023-12-20T02:20:24;15.00;15.00;15.00;;
48148;Laerm;29352;48.708;9.290;2023-12-20T02:22:50;15.00;15.00;15.00;;
48148;Laerm;29352;48.708;9.290;2023-12-20T02:25:15;15.00;15.00;15.00;;
48148;Laerm;29352;48.708;9.290;2023-12-20T02:27:41;15.00;15.00;15.00;;
48148;Laerm;29352;48.708;9.290;2023-12-20T02:30:10;16.12;15.00;45.36;;
48148;Laerm;29352;48.708;9.290;2023-12-20T02:32:35;15.08;15.00;33.90;;
48148;Laerm;29352;48.708;9.290;2023-12-20T02:35:01;15.00;15.00;15.00;;
48148;Laerm;29352;48.708;9.290;2023-12-20T02:37:26;16.25;15.00;41.68;;
48148;Laerm;29352;48.708;9.290;2023-12-20T02:39:52;15.46;15.00;36.91;;
48148;Laerm;29352;48.708;9.290;2023-12-20T02:42:19;15.45;15.00;38.67;;
48148;Laerm;29352;48.708;9.290;2023-12-20T02:44:46;16.36;15.00;42.93;;
48148;Laerm;29352;48.708;9.290;2023-12-20T02:47:11;17.37;15.00;44.31;;
48148;Laerm;29352;48.708;9.290;2023-12-20T02:49:37;16.25;15.00;41.68;;
48148;Laerm;29352;48.708;9.290;2023-12-20T02:52:03;19.36;15.00;44.69;;
48148;Laerm;29352;48.708;9.290;2023-12-20T02:54:29;16.54;15.00;44.31;;
48148;Laerm;29352;48.708;9.290;2023-12-20T02:56:54;19.08;15.00;44.69;;
48148;Laerm;29352;48.708;9.290;2023-12-20T02:59:20;18.89;15.00;44.31;;
48148;Laerm;29352;48.708;9.290;2023-12-20T03:01:46;18.98;15.00;44.31;;
48148;Laerm;29352;48.708;9.290;2023-12-20T03:04:12;18.77;15.00;44.31;;
48148;Laerm;29352;48.708;9.290;2023-12-20T03:06:38;20.01;15.00;44.69;;
48148;Laerm;29352;48.708;9.290;2023-12-20T03:09:05;20.40;15.00;45.36;;
48148;Laerm;29352;48.708;9.290;2023-12-20T03:11:30;20.24;15.00;44.69;;
48148;Laerm;29352;48.708;9.290;2023-12-20T03:13:57;19.59;15.00;44.69;;
48148;Laerm;29352;48.708;9.290;2023-12-20T03:16:23;22.67;15.00;45.36;;
48148;Laerm;29352;48.708;9.290;2023-12-20T03:18:49;23.95;15.00;47.88;;
48148;Laerm;29352;48.708;9.290;2023-12-20T03:21:15;26.59;15.00;46.20;;
48148;Laerm;29352;48.708;9.290;2023-12-20T03:23:42;21.47;15.00;44.69;;
48148;Laerm;29352;48.708;9.290;2023-12-20T03:26:09;22.45;15.00;45.36;;
48148;Laerm;29352;48.708;9.290;2023-12-20T03:28:36;26.57;15.00;46.20;;
48148;Laerm;29352;48.708;9.290;2023-12-20T03:31:02;19.64;15.00;45.36;;
48148;Laerm;29352;48.708;9.290;2023-12-20T03:33:29;15.00;15.00;15.00;;
48148;Laerm;29352;48.708;9.290;2023-12-20T03:35:55;15.00;15.00;15.00;;
48148;Laerm;29352;48.708;9.290;2023-12-20T03:38:21;15.00;15.00;15.00;;
48148;Laerm;29352;48.708;9.290;2023-12-20T03:40:49;15.00;15.00;15.00;;
48148;Laerm;29352;48.708;9.290;2023-12-20T03:43:15;15.00;15.00;15.00;;
48148;Laerm;29352;48.708;9.290;2023-12-20T03:45:42;15.00;15.00;15.00;;
48148;Laerm;29352;48.708;9.290;2023-12-20T03:48:08;15.00;15.00;15.00;;
48148;Laerm;29352;48.708;9.290;2023-12-20T03:50:34;15.00;15.00;15.00;;
48148;Laerm;29352;48.708;9.290;2023-12-20T03:53:00;15.00;15.00;15.00;;
48148;Laerm;29352;48.708;9.290;2023-12-20T03:55:27;15.00;15.00;15.00;;
48148;Laerm;29352;48.708;9.290;2023-12-20T03:57:54;15.00;15.00;15.00;;
48148;Laerm;29352;48.708;9.290;2023-12-20T04:00:19;15.00;15.00;15.00;;
48148;Laerm;29352;48.708;9.290;2023-12-20T04:02:46;15.00;15.00;15.00;;
48148;Laerm;29352;48.708;9.290;2023-12-20T04:05:11;15.00;15.00;15.00;;
48148;Laerm;29352;48.708;9.290;2023-12-20T04:07:38;15.00;15.00;15.00;;
48148;Laerm;29352;48.708;9.290;2023-12-20T04:10:05;15.00;15.00;15.00;;
48148;Laerm;29352;48.708;9.290;2023-12-20T04:12:32;15.00;15.00;15.00;;
48148;Laerm;29352;48.708;9.290;2023-12-20T04:14:57;15.00;15.00;15.00;;
48148;Laerm;29352;48.708;9.290;2023-12-20T04:17:23;15.00;15.00;15.00;;
48148;Laerm;29352;48.708;9.290;2023-12-20T04:19:49;15.00;15.00;15.00;;
48148;Laerm;29352;48.708;9.290;2023-12-20T04:22:16;15.00;15.00;15.00;;
48148;Laerm;29352;48.708;9.290;2023-12-20T04:24:42;15.00;15.00;15.00;;
48148;Laerm;29352;48.708;9.290;2023-12-20T04:27:08;15.00;15.00;15.00;;
48148;Laerm;29352;48.708;9.290;2023-12-20T04:29:35;15.00;15.00;15.00;;
48148;Laerm;29352;48.708;9.290;2023-12-20T04:32:00;15.00;15.00;15.00;;
48148;Laerm;29352;48.708;9.290;2023-12-20T04:34:26;15.00;15.00;15.00;;
48148;Laerm;29352;48.708;9.290;2023-12-20T04:36:52;15.00;15.00;15.00;;
48148;Laerm;29352;48.708;9.290;2023-12-20T04:39:19;15.00;15.00;15.00;;
48148;Laerm;29352;48.708;9.290;2023-12-20T04:41:44;15.00;15.00;15.00;;
48148;Laerm;29352;48.708;9.290;2023-12-20T04:44:10;15.00;15.00;15.00;;
48148;Laerm;29352;48.708;9.290;2023-12-20T04:46:35;15.00;15.00;15.00;;
48148;Laerm;29352;48.708;9.290;2023-12-20T04:49:01;15.00;15.00;15.00;;
48148;Laerm;29352;48.708;9.290;2023-12-20T04:51:26;15.00;15.00;15.00;;
48148;Laerm;29352;48.708;9.290;2023-12-20T04:53:52;15.00;15.00;15.00;;
48148;Laerm;29352;48.708;9.290;2023-12-20T04:56:17;15.00;15.00;15.00;;
48148;Laerm;29352;48.708;9.290;2023-12-20T04:58:43;15.00;15.00;15.00;;
48148;Laerm;29352;48.708;9.290;2023-12-20T05:01:09;15.00;15.00;15.00;;
48148;Laerm;29352;48.708;9.290;2023-12-20T05:03:35;15.00;15.00;15.00;;
48148;Laerm;29352;48.708;9.290;2023-12-20T05:06:01;15.00;15.00;15.00;;
48148;Laerm;29352;48.708;9.290;2023-12-20T05:08:27;15.00;15.00;15.00;;
48148;Laerm;29352;48.708;9.290;2023-12-20T05:10:54;15.00;15.00;15.00;;
48148;Laerm;29352;48.708;9.290;2023-12-20T05:13:21;15.00;15.00;15.00;;
48148;Laerm;29352;48.708;9.290;2023-12-20T05:15:47;15.00;15.00;15.00;;
48148;Laerm;29352;48.708;9.290;2023-12-20T05:18:13;15.00;15.00;15.00;;
48148;Laerm;29352;48.708;9.290;2023-12-20T05:20:39;15.00;15.00;15.00;;
48148;Laerm;29352;48.708;9.290;2023-12-20T05:27:59;15.00;15.00;15.00;;
48148;Laerm;29352;48.708;9.290;2023-12-20T05:30:25;15.00;15.00;15.00;;
48148;Laerm;29352;48.708;9.290;2023-12-20T05:32:50;15.00;15.00;15.00;;
48148;Laerm;29352;48.708;9.290;2023-12-20T05:35:16;15.00;15.00;15.00;;
48148;Laerm;29352;48.708;9.290;2023-12-20T05:37:43;15.00;15.00;15.00;;
48148;Laerm;29352;48.708;9.290;2023-12-20T05:40:10;15.00;15.00;15.00;;
48148;Laerm;29352;48.708;9.290;2023-12-20T05:42:36;15.00;15.00;15.00;;
48148;Laerm;29352;48.708;9.290;2023-12-20T05:45:04;15.00;15.00;15.00;;
48148;Laerm;29352;48.708;9.290;2023-12-20T05:47:29;15.00;15.00;15.00;;
48148;Laerm;29352;48.708;9.290;2023-12-20T05:49:55;15.00;15.00;15.00;;
48148;Laerm;29352;48.708;9.290;2023-12-20T05:52:21;15.00;15.00;15.00;;
48148;Laerm;29352;48.708;9.290;2023-12-20T05:54:47;15.00;15.00;15.00;;
48148;Laerm;29352;48.708;9.290;2023-12-20T05:57:13;15.00;15.00;15.00;;
48148;Laerm;29352;48.708;9.290;2023-12-20T05:59:38;15.00;15.00;15.00;;
48148;Laerm;29352;48.708;9.290;2023-12-20T06:02:04;15.00;15.00;15.00;;
48148;Laerm;29352;48.708;9.290;2023-12-20T06:04:30;15.00;15.00;15.00;;
48148;Laerm;29352;48.708;9.290;2023-12-20T06:06:55;15.00;15.00;15.00;;
48148;Laerm;29352;48.708;9.290;2023-12-20T06:09:21;15.00;15.00;15.00;;
48148;Laerm;29352;48.708;9.290;2023-12-20T06:11:47;15.00;15.00;15.00;;
48148;Laerm;29352;48.708;9.290;2023-12-20T06:14:12;15.00;15.00;15.00;;
48148;Laerm;29352;48.708;9.290;2023-12-20T06:16:38;15.00;15.00;15.00;;
48148;Laerm;29352;48.708;9.290;2023-12-20T06:19:03;51.61;15.00;62.45;;
48148;Laerm;29352;48.708;9.290;2023-12-20T06:21:29;54.21;53.04;58.84;;
48148;Laerm;29352;48.708;9.290;2023-12-20T06:23:55;54.24;53.24;59.73;;
48148;Laerm;29352;48.708;9.290;2023-12-20T06:26:20;54.14;52.98;57.12;;
48148;Laerm;29352;48.708;9.290;2023-12-20T06:28:46;54.23;49.81;61.39;;
48148;Laerm;29352;48.708;9.290;2023-12-20T06:31:12;54.21;53.14;61.38;;
48148;Laerm;29352;48.708;9.290;2023-12-20T06:33:38;54.17;52.98;61.62;;
48148;Laerm;29352;48.708;9.290;2023-12-20T06:36:06;54.12;53.09;55.04;;
48148;Laerm;29352;48.708;9.290;2023-12-20T06:38:31;54.11;53.19;55.01;;
48148;Laerm;29352;48.708;9.290;2023-12-20T06:40:57;54.08;52.82;55.04;;
48148;Laerm;29352;48.708;9.290;2023-12-20T06:43:23;54.08;52.98;55.04;;
48148;Laerm;29352;48.708;9.290;2023-12-20T06:45:49;54.07;53.09;54.97;;
48148;Laerm;29352;48.708;9.290;2023-12-20T06:48:16;54.04;52.93;54.97;;
48148;Laerm;29352;48.708;9.290;2023-12-20T06:50:42;54.05;53.04;55.11;;
48148;Laerm;29352;48.708;9.290;2023-12-20T06:53:07;54.04;52.98;55.01;;
48148;Laerm;29352;48.708;9.290;2023-12-20T06:55:36;54.06;53.14;55.01;;
48148;Laerm;29352;48.708;9.290;2023-12-20T06:58:03;54.05;52.98;55.04;;
48148;Laerm;29352;48.708;9.290;2023-12-20T07:00:31;54.03;53.09;55.20;;
48148;Laerm;29352;48.708;9.290;2023-12-20T07:02:57;54.04;53.09;55.07;;
48148;Laerm;29352;48.708;9.290;2023-12-20T07:05:23;54.04;53.04;54.94;;
48148;Laerm;29352;48.708;9.290;2023-12-20T07:07:49;54.06;53.09;54.97;;
48148;Laerm;29352;48.708;9.290;2023-12-20T07:10:14;54.11;52.93;55.17;;
48148;Laerm;29352;48.708;9.290;2023-12-20T07:12:40;54.12;53.09;55.23;;
48148;Laerm;29352;48.708;9.290;2023-12-20T07:15:05;54.12;52.98;55.48;;
48148;Laerm;29352;48.708;9.290;2023-12-20T07:17:33;55.22;53.19;60.88;;
48148;Laerm;29352;48.708;9.290;2023-12-20T07:19:59;59.06;54.69;61.67;;
48148;Laerm;29352;48.708;9.290;2023-12-20T07:22:29;56.57;15.00;60.82;;
48148;Laerm;29352;48.708;9.290;2023-12-20T07:24:54;47.04;15.00;60.26;;
48148;Laerm;29352;48.708;9.290;2023-12-20T07:27:20;22.57;15.00;48.67;;
48148;Laerm;29352;48.708;9.290;2023-12-20T07:29:45;15.31;15.00;36.91;;
48148;Laerm;29352;48.708;9.290;2023-12-20T07:32:11;16.13;15.00;43.44;;
48148;Laerm;29352;48.708;9.290;2023-12-20T07:37:02;25.21;15.00;48.37;;
48148;Laerm;29352;48.708;9.290;2023-12-20T07:39:28;23.73;15.00;50.13;;
48148;Laerm;29352;48.708;9.290;2023-12-20T07:41:54;16.65;15.00;39.92;;
48148;Laerm;29352;48.708;9.290;2023-12-20T07:44:21;16.64;15.00;43.90;;
48148;Laerm;29352;48.708;9.290;2023-12-20T07:46:48;17.75;15.00;44.31;;
48148;Laerm;29352;48.708;9.290;2023-12-20T07:49:14;18.46;15.00;44.31;;
48148;Laerm;29352;48.708;9.290;2023-12-20T07:51:40;31.64;15.00;54.07;;
48148;Laerm;29352;48.708;9.290;2023-12-20T07:54:06;53.28;15.00;58.94;;
48148;Laerm;29352;48.708;9.290;2023-12-20T07:56:33;50.61;15.00;58.15;;
48148;Laerm;29352;48.708;9.290;2023-12-20T07:58:58;25.71;15.00;51.22;;
48148;Laerm;29352;48.708;9.290;2023-12-20T08:01:24;49.34;15.00;58.52;;
48148;Laerm;29352;48.708;9.290;2023-12-20T08:03:50;52.77;15.00;58.31;;
48148;Laerm;29352;48.708;9.290;2023-12-20T08:06:15;53.44;15.00;57.54;;
48148;Laerm;29352;48.708;9.290;2023-12-20T08:08:42;52.25;15.00;56.97;;
48148;Laerm;29352;48.708;9.290;2023-12-20T08:11:08;52.67;15.00;56.82;;
48148;Laerm;29352;48.708;9.290;2023-12-20T08:13:33;53.27;15.00;56.20;;
48148;Laerm;29352;48.708;9.290;2023-12-20T08:15:59;54.04;15.00;56.45;;
48148;Laerm;29352;48.708;9.290;2023-12-20T08:18:24;53.68;15.00;56.52;;
48148;Laerm;29352;48.708;9.290;2023-12-20T08:20:49;52.69;15.00;55.48;;
48148;Laerm;29352;48.708;9.290;2023-12-20T08:23:18;52.98;15.00;56.43;;
48148;Laerm;29352;48.708;9.290;2023-12-20T08:25:43;53.46;15.00;56.35;;
48148;Laerm;29352;48.708;9.290;2023-12-20T08:28:09;52.50;15.00;56.25;;
48148;Laerm;29352;48.708;9.290;2023-12-20T08:30:35;52.99;40.89;56.18;;
48148;Laerm;29352;48.708;9.290;2023-12-20T08:33:00;53.07;15.00;55.63;;
48148;Laerm;29352;48.708;9.290;2023-12-20T08:35:26;53.34;15.00;56.23;;
48148;Laerm;29352;48.708;9.290;2023-12-20T08:37:51;50.47;15.00;55.36;;
48148;Laerm;29352;48.708;9.290;2023-12-20T08:40:18;52.22;33.90;55.72;;
48148;Laerm;29352;48.708;9.290;2023-12-20T08:42:43;52.77;39.92;56.15;;
48148;Laerm;29352;48.708;9.290;2023-12-20T08:45:09;52.47;15.00;56.05;;
48148;Laerm;29352;48.708;9.290;2023-12-20T08:47:35;51.65;15.00;55.54;;
48148;Laerm;29352;48.708;9.290;2023-12-20T08:50:00;53.18;36.91;56.23;;
48148;Laerm;29352;48.708;9.290;2023-12-20T08:52:27;46.61;15.00;53.81;;
48148;Laerm;29352;48.708;9.290;2023-12-20T08:57:22;51.16;15.00;56.28;;
48148;Laerm;29352;48.708;9.290;2023-12-20T08:59:50;47.21;15.00;55.57;;
48148;Laerm;29352;48.708;9.290;2023-12-20T09:02:17;39.53;15.00;53.24;;
48148;Laerm;29352;48.708;9.290;2023-12-20T09:04:43;43.00;15.00;54.47;;
48148;Laerm;29352;48.708;9.290;2023-12-20T09:07:23;48.58;15.00;53.86;;
48148;Laerm;29352;48.708;9.290;2023-12-20T09:09:50;49.73;15.00;55.20;;
48148;Laerm;29352;48.708;9.290;2023-12-20T09:12:18;41.19;15.00;51.75;;
48148;Laerm;29352;48.708;9.290;2023-12-20T09:14:47;47.64;15.00;54.58;;
48148;Laerm;29352;48.708;9.290;2023-12-20T09:17:13;50.64;15.00;54.73;;
48148;Laerm;29352;48.708;9.290;2023-12-20T09:19:39;46.60;15.00;53.63;;
48148;Laerm;29352;48.708;9.290;2023-12-20T09:22:05;42.57;15.00;51.61;;
48148;Laerm;29352;48.708;9.290;2023-12-20T09:24:31;47.65;15.00;54.23;;
48148;Laerm;29352;48.708;9.290;2023-12-20T09:26:56;44.30;15.00;53.58;;
48148;Laerm;29352;48.708;9.290;2023-12-20T09:29:23;47.68;15.00;55.20;;
48148;Laerm;29352;48.708;9.290;2023-12-20T09:31:50;52.59;15.00;55.91;;
48148;Laerm;29352;48.708;9.290;2023-12-20T09:34:16;45.27;15.00;53.68;;
48148;Laerm;29352;48.708;9.290;2023-12-20T09:36:42;49.80;15.00;56.28;;
48148;Laerm;29352;48.708;9.290;2023-12-20T09:39:14;53.15;33.90;55.69;;
48148;Laerm;29352;48.708;9.290;2023-12-20T09:41:44;51.32;39.92;55.63;;
48148;Laerm;29352;48.708;9.290;2023-12-20T09:44:16;51.27;39.92;55.39;;
48148;Laerm;29352;48.708;9.290;2023-12-20T09:49:18;50.83;15.00;54.94;;
48148;Laerm;29352;48.708;9.290;2023-12-20T09:51:47;48.30;15.00;54.47;;
48148;Laerm;29352;48.708;9.290;2023-12-20T09:54:23;49.35;15.00;54.03;;
48148;Laerm;29352;48.708;9.290;2023-12-20T09:56:49;51.18;42.35;54.69;;
48148;Laerm;29352;48.708;9.290;2023-12-20T09:59:16;49.82;33.90;53.58;;
48148;Laerm;29352;48.708;9.290;2023-12-20T10:01:43;49.11;15.00;53.14;;
48148;Laerm;29352;48.708;9.290;2023-12-20T10:04:12;44.41;15.00;51.06;;
48148;Laerm;29352;48.708;9.290;2023-12-20T10:06:42;40.56;15.00;49.58;;
48148;Laerm;29352;48.708;9.290;2023-12-20T10:09:12;44.23;15.00;50.80;;
48148;Laerm;29352;48.708;9.290;2023-12-20T10:11:39;43.45;15.00;50.62;;
48148;Laerm;29352;48.708;9.290;2023-12-20T10:14:07;41.80;15.00;50.43;;
48148;Laerm;29352;48.708;9.290;2023-12-20T10:16:34;39.19;15.00;49.81;;
48148;Laerm;29352;48.708;9.290;2023-12-20T10:19:00;32.57;15.00;47.12;;
48148;Laerm;29352;48.708;9.290;2023-12-20T10:21:30;31.95;15.00;49.08;;
48148;Laerm;29352;48.708;9.290;2023-12-20T10:23:57;40.76;15.00;49.92;;
48148;Laerm;29352;48.708;9.290;2023-12-20T10:26:26;42.94;15.00;50.03;;
48148;Laerm;29352;48.708;9.290;2023-12-20T10:29:00;37.85;15.00;48.95;;
48148;Laerm;29352;48.708;9.290;2023-12-20T10:31:33;37.43;15.00;48.52;;
48148;Laerm;29352;48.708;9.290;2023-12-20T10:34:02;37.66;15.00;49.08;;
48148;Laerm;29352;48.708;9.290;2023-12-20T10:36:33;36.96;15.00;48.37;;
48148;Laerm;29352;48.708;9.290;2023-12-20T10:39:00;31.71;15.00;46.91;;
48148;Laerm;29352;48.708;9.290;2023-12-20T10:41:29;37.27;15.00;48.37;;
48148;Laerm;29352;48.708;9.290;2023-12-20T10:44:04;38.71;15.00;50.71;;
48148;Laerm;29352;48.708;9.290;2023-12-20T10:46:34;48.36;15.00;84.17;;
48148;Laerm;29352;48.708;9.290;2023-12-20T10:49:03;43.46;15.00;50.13;;
48148;Laerm;29352;48.708;9.290;2023-12-20T10:51:31;40.03;15.00;49.70;;
48148;Laerm;29352;48.708;9.290;2023-12-20T10:53:59;41.51;15.00;49.34;;
48148;Laerm;29352;48.708;9.290;2023-12-20T10:56:32;42.08;15.00;49.92;;
48148;Laerm;29352;48.708;9.290;2023-12-20T10:59:02;46.43;15.00;51.38;;
48148;Laerm;29352;48.708;9.290;2023-12-20T11:01:31;47.08;15.00;52.47;;
48148;Laerm;29352;48.708;9.290;2023-12-20T11:03:59;46.85;15.00;52.09;;
48148;Laerm;29352;48.708;9.290;2023-12-20T11:07:01;46.46;15.00;52.03;;
48148;Laerm;29352;48.708;9.290;2023-12-20T11:09:41;46.73;15.00;51.75;;
48148;Laerm;29352;48.708;9.290;2023-12-20T11:12:17;47.47;15.00;52.16;;
48148;Laerm;29352;48.708;9.290;2023-12-20T11:14:55;45.44;15.00;50.89;;
48148;Laerm;29352;48.708;9.290;2023-12-20T11:17:22;46.56;15.00;51.68;;
48148;Laerm;29352;48.708;9.290;2023-12-20T11:22:17;45.44;15.00;50.43;;
48148;Laerm;29352;48.708;9.290;2023-12-20T11:24:45;44.24;15.00;49.81;;
48148;Laerm;29352;48.708;9.290;2023-12-20T11:27:13;57.59;15.00;93.72;;
48148;Laerm;29352;48.708;9.290;2023-12-20T11:29:41;44.79;15.00;50.62;;
48148;Laerm;29352;48.708;9.290;2023-12-20T11:34:53;39.43;15.00;49.92;;
48148;Laerm;29352;48.708;9.290;2023-12-20T11:37:20;37.71;15.00;59.41;;
48148;Laerm;29352;48.708;9.290;2023-12-20T11:39:55;37.22;15.00;47.70;;
48148;Laerm;29352;48.708;9.290;2023-12-20T11:42:21;36.92;15.00;48.21;;
48148;Laerm;29352;48.708;9.290;2023-12-20T11:44:47;48.29;15.00;84.17;;
48148;Laerm;29352;48.708;9.290;2023-12-20T11:47:14;48.21;15.00;84.17;;
48148;Laerm;29352;48.708;9.290;2023-12-20T11:49:41;57.53;15.00;93.71;;
48148;Laerm;29352;48.708;9.290;2023-12-20T11:52:07;48.42;15.00;84.17;;
48148;Laerm;29352;48.708;9.290;2023-12-20T11:54:32;41.51;15.00;59.10;;
48148;Laerm;29352;48.708;9.290;2023-12-20T11:56:58;41.37;15.00;49.46;;
48148;Laerm;29352;48.708;9.290;2023-12-20T11:59:24;41.09;15.00;49.81;;
48148;Laerm;29352;48.708;9.290;2023-12-20T12:01:50;42.98;15.00;50.43;;
48148;Laerm;29352;48.708;9.290;2023-12-20T12:04:16;42.67;15.00;49.34;;
48148;Laerm;29352;48.708;9.290;2023-12-20T12:06:44;48.99;15.00;84.17;;
48148;Laerm;29352;48.708;9.290;2023-12-20T12:09:10;43.66;15.00;49.58;;
48148;Laerm;29352;48.708;9.290;2023-12-20T12:11:35;43.58;15.00;49.81;;
48148;Laerm;29352;48.708;9.290;2023-12-20T12:14:01;42.33;15.00;48.95;;
48148;Laerm;29352;48.708;9.290;2023-12-20T12:16:27;43.02;15.00;49.34;;
48148;Laerm;29352;48.708;9.290;2023-12-20T12:18:57;60.17;15.00;96.07;;
48148;Laerm;29352;48.708;9.290;2023-12-20T12:21:23;42.41;15.00;49.34;;
48148;Laerm;29352;48.708;9.290;2023-12-20T12:23:49;42.73;15.00;50.03;;
48148;Laerm;29352;48.708;9.290;2023-12-20T12:26:15;43.39;15.00;49.70;;
48148;Laerm;29352;48.708;9.290;2023-12-20T12:28:42;43.69;15.00;49.58;;
48148;Laerm;29352;48.708;9.290;2023-12-20T12:31:14;42.89;15.00;50.13;;
48148;Laerm;29352;48.708;9.290;2023-12-20T12:33:43;43.74;15.00;49.81;;
48148;Laerm;29352;48.708;9.290;2023-12-20T12:36:10;40.98;15.00;49.08;;
48148;Laerm;29352;48.708;9.290;2023-12-20T12:38:38;40.85;15.00;49.92;;
48148;Laerm;29352;48.708;9.290;2023-12-20T12:41:05;43.05;15.00;50.03;;
48148;Laerm;29352;48.708;9.290;2023-12-20T12:43:31;44.83;15.00;50.33;;
48148;Laerm;29352;48.708;9.290;2023-12-20T12:45:57;45.52;15.00;51.14;;
48148;Laerm;29352;48.708;9.290;2023-12-20T12:48:22;43.31;15.00;50.23;;
48148;Laerm;29352;48.708;9.290;2023-12-20T12:50:48;59.73;15.00;95.87;;
48148;Laerm;29352;48.708;9.290;2023-12-20T12:53:15;40.58;15.00;48.81;;
48148;Laerm;29352;48.708;9.290;2023-12-20T12:55:40;40.73;15.00;49.21;;
48148;Laerm;29352;48.708;9.290;2023-12-20T12:58:06;42.19;15.00;49.46;;
48148;Laerm;29352;48.708;9.290;2023-12-20T13:00:32;45.32;15.00;50.33;;
48148;Laerm;29352;48.708;9.290;2023-12-20T13:02:58;46.29;15.00;50.71;;
48148;Laerm;29352;48.708;9.290;2023-12-20T13:05:23;43.29;15.00;49.34;;
48148;Laerm;29352;48.708;9.290;2023-12-20T13:07:48;40.77;15.00;48.95;;
48148;Laerm;29352;48.708;9.290;2023-12-20T13:10:15;57.56;15.00;93.71;;
48148;Laerm;29352;48.708;9.290;2023-12-20T13:12:43;39.39;15.00;55.69;;
48148;Laerm;29352;48.708;9.290;2023-12-20T13:15:09;43.79;15.00;51.75;;
48148;Laerm;29352;48.708;9.290;2023-12-20T13:17:34;41.92;15.00;49.34;;
48148;Laerm;29352;48.708;9.290;2023-12-20T13:20:00;43.69;15.00;51.22;;
48148;Laerm;29352;48.708;9.290;2023-12-20T13:22:25;44.05;15.00;51.30;;
48148;Laerm;29352;48.708;9.290;2023-12-20T13:24:50;46.95;15.00;51.22;;
48148;Laerm;29352;48.708;9.290;2023-12-20T13:27:16;45.27;15.00;50.23;;
48148;Laerm;29352;48.708;9.290;2023-12-20T13:29:41;45.38;15.00;50.43;;
48148;Laerm;29352;48.708;9.290;2023-12-20T13:32:07;45.38;15.00;50.23;;
48148;Laerm;29352;48.708;9.290;2023-12-20T13:34:33;44.02;15.00;49.81;;
48148;Laerm;29352;48.708;9.290;2023-12-20T13:36:58;44.86;15.00;51.14;;
48148;Laerm;29352;48.708;9.290;2023-12-20T13:39:24;44.89;15.00;50.33;;
48148;Laerm;29352;48.708;9.290;2023-12-20T13:41:49;44.58;15.00;50.03;;
48148;Laerm;29352;48.708;9.290;2023-12-20T13:44:15;44.69;15.00;50.63;;
48148;Laerm;29352;48.708;9.290;2023-12-20T13:46:41;44.56;15.00;50.53;;
48148;Laerm;29352;48.708;9.290;2023-12-20T13:49:07;44.09;15.00;50.03;;
48148;Laerm;29352;48.708;9.290;2023-12-20T13:51:33;42.96;15.00;49.58;;
48148;Laerm;29352;48.708;9.290;2023-12-20T13:53:58;43.09;15.00;49.34;;
48148;Laerm;29352;48.708;9.290;2023-12-20T13:56:25;43.56;15.00;49.58;;
48148;Laerm;29352;48.708;9.290;2023-12-20T13:58:50;54.27;15.00;90.20;;
48148;Laerm;29352;48.708;9.290;2023-12-20T14:01:17;43.63;15.00;50.03;;